sensor_id;sensor_type;location;lat;lon;timestamp;P1;durP1;ratioP1;P2;durP2;ratioP2
8319;SDS011;4197;42.130;24.746;2024-03-07T00:00:48;28.57;;;18.70;;
8319;SDS011;4197;42.130;24.746;2024-03-07T00:03:20;33.93;;;21.03;;
8319;SDS011;4197;42.130;24.746;2024-03-07T00:05:52;36.70;;;19.53;;
8319;SDS011;4197;42.130;24.746;2024-03-07T00:08:20;30.03;;;20.77;;
8319;SDS011;4197;42.130;24.746;2024-03-07T00:10:49;36.50;;;21.63;;
8319;SDS011;4197;42.130;24.746;2024-03-07T00:13:17;34.90;;;20.17;;
8319;SDS011;4197;42.130;24.746;2024-03-07T00:15:45;33.57;;;20.50;;
8319;SDS011;4197;42.130;24.746;2024-03-07T00:18:14;33.23;;;22.27;;
8319;SDS011;4197;42.130;24.746;2024-03-07T00:20:42;38.47;;;22.60;;
8319;SDS011;4197;42.130;24.746;2024-03-07T00:23:12;40.17;;;21.07;;
8319;SDS011;4197;42.130;24.746;2024-03-07T00:25:43;33.90;;;20.93;;
8319;SDS011;4197;42.130;24.746;2024-03-07T00:28:11;36.40;;;20.93;;
8319;SDS011;4197;42.130;24.746;2024-03-07T00:30:40;35.07;;;20.47;;
8319;SDS011;4197;42.130;24.746;2024-03-07T00:33:09;32.80;;;20.63;;
8319;SDS011;4197;42.130;24.746;2024-03-07T00:35:37;33.63;;;20.40;;
8319;SDS011;4197;42.130;24.746;2024-03-07T00:38:06;35.60;;;20.27;;
8319;SDS011;4197;42.130;24.746;2024-03-07T00:40:35;33.60;;;20.60;;
8319;SDS011;4197;42.130;24.746;2024-03-07T00:43:04;32.87;;;20.97;;
8319;SDS011;4197;42.130;24.746;2024-03-07T00:45:33;33.87;;;21.13;;
8319;SDS011;4197;42.130;24.746;2024-03-07T00:48:01;31.00;;;20.27;;
8319;SDS011;4197;42.130;24.746;2024-03-07T00:50:30;43.33;;;21.57;;
8319;SDS011;4197;42.130;24.746;2024-03-07T00:52:59;35.03;;;20.30;;
8319;SDS011;4197;42.130;24.746;2024-03-07T00:55:27;35.63;;;22.23;;
8319;SDS011;4197;42.130;24.746;2024-03-07T00:57:57;33.23;;;21.17;;
8319;SDS011;4197;42.130;24.746;2024-03-07T01:00:25;30.87;;;20.03;;
8319;SDS011;4197;42.130;24.746;2024-03-07T01:02:54;33.10;;;21.53;;
8319;SDS011;4197;42.130;24.746;2024-03-07T01:05:23;34.87;;;21.83;;
8319;SDS011;4197;42.130;24.746;2024-03-07T01:07:51;34.93;;;21.20;;
8319;SDS011;4197;42.130;24.746;2024-03-07T01:10:22;40.60;;;22.47;;
8319;SDS011;4197;42.130;24.746;2024-03-07T01:12:50;36.50;;;20.67;;
8319;SDS011;4197;42.130;24.746;2024-03-07T01:15:21;32.83;;;20.20;;
8319;SDS011;4197;42.130;24.746;2024-03-07T01:17:50;32.23;;;20.57;;
8319;SDS011;4197;42.130;24.746;2024-03-07T01:20:18;36.20;;;20.57;;
8319;SDS011;4197;42.130;24.746;2024-03-07T01:22:47;34.27;;;20.37;;
8319;SDS011;4197;42.130;24.746;2024-03-07T01:25:16;29.93;;;20.27;;
8319;SDS011;4197;42.130;24.746;2024-03-07T01:27:45;32.20;;;19.30;;
8319;SDS011;4197;42.130;24.746;2024-03-07T01:30:14;31.43;;;19.67;;
8319;SDS011;4197;42.130;24.746;2024-03-07T01:32:44;34.17;;;20.20;;
8319;SDS011;4197;42.130;24.746;2024-03-07T01:35:12;35.60;;;20.23;;
8319;SDS011;4197;42.130;24.746;2024-03-07T01:37:41;32.40;;;19.27;;
8319;SDS011;4197;42.130;24.746;2024-03-07T01:40:09;36.73;;;19.93;;
8319;SDS011;4197;42.130;24.746;2024-03-07T01:42:38;35.30;;;20.10;;
8319;SDS011;4197;42.130;24.746;2024-03-07T01:45:06;32.47;;;19.83;;
8319;SDS011;4197;42.130;24.746;2024-03-07T01:47:36;34.53;;;19.87;;
8319;SDS011;4197;42.130;24.746;2024-03-07T01:50:06;32.13;;;18.90;;
8319;SDS011;4197;42.130;24.746;2024-03-07T01:52:35;30.97;;;18.30;;
8319;SDS011;4197;42.130;24.746;2024-03-07T01:55:06;34.47;;;20.33;;
8319;SDS011;4197;42.130;24.746;2024-03-07T01:57:36;31.73;;;18.93;;
8319;SDS011;4197;42.130;24.746;2024-03-07T02:00:05;28.43;;;18.30;;
8319;SDS011;4197;42.130;24.746;2024-03-07T02:02:35;29.50;;;18.77;;
8319;SDS011;4197;42.130;24.746;2024-03-07T02:05:06;27.87;;;17.23;;
8319;SDS011;4197;42.130;24.746;2024-03-07T02:07:34;27.30;;;18.20;;
8319;SDS011;4197;42.130;24.746;2024-03-07T02:10:03;28.03;;;17.70;;
8319;SDS011;4197;42.130;24.746;2024-03-07T02:12:32;31.63;;;17.80;;
8319;SDS011;4197;42.130;24.746;2024-03-07T02:15:00;30.50;;;17.50;;
8319;SDS011;4197;42.130;24.746;2024-03-07T02:17:29;26.60;;;17.83;;
8319;SDS011;4197;42.130;24.746;2024-03-07T02:19:58;35.67;;;19.50;;
8319;SDS011;4197;42.130;24.746;2024-03-07T02:22:28;33.63;;;19.77;;
8319;SDS011;4197;42.130;24.746;2024-03-07T02:24:56;31.57;;;18.57;;
8319;SDS011;4197;42.130;24.746;2024-03-07T02:27:24;33.90;;;18.73;;
8319;SDS011;4197;42.130;24.746;2024-03-07T02:29:53;29.67;;;18.97;;
8319;SDS011;4197;42.130;24.746;2024-03-07T02:32:21;27.37;;;17.70;;
8319;SDS011;4197;42.130;24.746;2024-03-07T02:34:50;32.00;;;18.63;;
8319;SDS011;4197;42.130;24.746;2024-03-07T02:37:19;37.53;;;18.97;;
8319;SDS011;4197;42.130;24.746;2024-03-07T02:39:48;34.30;;;19.73;;
8319;SDS011;4197;42.130;24.746;2024-03-07T02:42:17;32.67;;;20.00;;
8319;SDS011;4197;42.130;24.746;2024-03-07T02:44:45;33.57;;;20.03;;
8319;SDS011;4197;42.130;24.746;2024-03-07T02:47:14;32.40;;;20.97;;
8319;SDS011;4197;42.130;24.746;2024-03-07T02:49:42;35.23;;;20.53;;
8319;SDS011;4197;42.130;24.746;2024-03-07T02:52:11;34.90;;;20.47;;
8319;SDS011;4197;42.130;24.746;2024-03-07T02:54:39;29.90;;;19.47;;
8319;SDS011;4197;42.130;24.746;2024-03-07T02:57:08;39.13;;;20.93;;
8319;SDS011;4197;42.130;24.746;2024-03-07T02:59:38;34.43;;;20.43;;
8319;SDS011;4197;42.130;24.746;2024-03-07T03:02:06;30.67;;;18.13;;
8319;SDS011;4197;42.130;24.746;2024-03-07T03:04:34;30.93;;;19.03;;
8319;SDS011;4197;42.130;24.746;2024-03-07T03:07:03;34.63;;;20.10;;
8319;SDS011;4197;42.130;24.746;2024-03-07T03:09:31;33.20;;;19.00;;
8319;SDS011;4197;42.130;24.746;2024-03-07T03:12:00;38.93;;;18.77;;
8319;SDS011;4197;42.130;24.746;2024-03-07T03:14:29;36.47;;;19.37;;
8319;SDS011;4197;42.130;24.746;2024-03-07T03:16:58;30.97;;;17.83;;
8319;SDS011;4197;42.130;24.746;2024-03-07T03:19:26;31.47;;;18.67;;
8319;SDS011;4197;42.130;24.746;2024-03-07T03:21:55;27.50;;;18.50;;
8319;SDS011;4197;42.130;24.746;2024-03-07T03:24:23;30.03;;;19.23;;
8319;SDS011;4197;42.130;24.746;2024-03-07T03:26:52;34.10;;;19.50;;
8319;SDS011;4197;42.130;24.746;2024-03-07T03:29:20;31.30;;;19.27;;
8319;SDS011;4197;42.130;24.746;2024-03-07T03:31:50;34.60;;;19.37;;
8319;SDS011;4197;42.130;24.746;2024-03-07T03:34:18;32.13;;;20.17;;
8319;SDS011;4197;42.130;24.746;2024-03-07T03:36:47;26.77;;;17.33;;
8319;SDS011;4197;42.130;24.746;2024-03-07T03:39:15;32.73;;;19.87;;
8319;SDS011;4197;42.130;24.746;2024-03-07T03:41:47;35.87;;;18.20;;
8319;SDS011;4197;42.130;24.746;2024-03-07T03:44:16;34.83;;;19.63;;
8319;SDS011;4197;42.130;24.746;2024-03-07T03:46:47;30.03;;;18.70;;
8319;SDS011;4197;42.130;24.746;2024-03-07T03:49:18;29.43;;;17.23;;
8319;SDS011;4197;42.130;24.746;2024-03-07T03:51:50;34.60;;;16.77;;
8319;SDS011;4197;42.130;24.746;2024-03-07T03:54:22;46.33;;;24.13;;
8319;SDS011;4197;42.130;24.746;2024-03-07T03:56:50;33.40;;;18.57;;
8319;SDS011;4197;42.130;24.746;2024-03-07T03:59:18;32.90;;;19.87;;
8319;SDS011;4197;42.130;24.746;2024-03-07T04:01:47;28.97;;;18.40;;
8319;SDS011;4197;42.130;24.746;2024-03-07T04:04:17;34.70;;;22.37;;
8319;SDS011;4197;42.130;24.746;2024-03-07T04:06:46;30.47;;;18.13;;
8319;SDS011;4197;42.130;24.746;2024-03-07T04:09:14;29.20;;;17.27;;
8319;SDS011;4197;42.130;24.746;2024-03-07T04:11:44;32.70;;;20.80;;
8319;SDS011;4197;42.130;24.746;2024-03-07T04:14:13;30.07;;;19.67;;
8319;SDS011;4197;42.130;24.746;2024-03-07T04:16:42;28.53;;;18.03;;
8319;SDS011;4197;42.130;24.746;2024-03-07T04:19:10;32.33;;;18.80;;
8319;SDS011;4197;42.130;24.746;2024-03-07T04:21:40;28.57;;;16.77;;
8319;SDS011;4197;42.130;24.746;2024-03-07T04:24:08;30.80;;;19.30;;
8319;SDS011;4197;42.130;24.746;2024-03-07T04:26:36;28.77;;;18.60;;
8319;SDS011;4197;42.130;24.746;2024-03-07T04:29:08;29.20;;;17.80;;
8319;SDS011;4197;42.130;24.746;2024-03-07T04:31:37;36.20;;;24.43;;
8319;SDS011;4197;42.130;24.746;2024-03-07T04:34:05;33.67;;;20.20;;
8319;SDS011;4197;42.130;24.746;2024-03-07T04:36:34;46.73;;;27.30;;
8319;SDS011;4197;42.130;24.746;2024-03-07T04:39:06;28.63;;;17.60;;
8319;SDS011;4197;42.130;24.746;2024-03-07T04:41:41;30.87;;;18.17;;
8319;SDS011;4197;42.130;24.746;2024-03-07T04:44:09;36.93;;;23.80;;
8319;SDS011;4197;42.130;24.746;2024-03-07T04:46:38;34.93;;;18.70;;
8319;SDS011;4197;42.130;24.746;2024-03-07T04:49:09;35.60;;;17.70;;
8319;SDS011;4197;42.130;24.746;2024-03-07T04:51:37;35.17;;;21.07;;
8319;SDS011;4197;42.130;24.746;2024-03-07T04:54:08;30.63;;;19.97;;
8319;SDS011;4197;42.130;24.746;2024-03-07T04:56:37;28.47;;;17.33;;
8319;SDS011;4197;42.130;24.746;2024-03-07T04:59:05;32.43;;;17.97;;
8319;SDS011;4197;42.130;24.746;2024-03-07T05:01:34;28.00;;;17.73;;
8319;SDS011;4197;42.130;24.746;2024-03-07T05:04:02;30.57;;;18.43;;
8319;SDS011;4197;42.130;24.746;2024-03-07T05:06:31;28.77;;;17.57;;
8319;SDS011;4197;42.130;24.746;2024-03-07T05:09:00;34.90;;;18.97;;
8319;SDS011;4197;42.130;24.746;2024-03-07T05:11:31;26.57;;;17.23;;
8319;SDS011;4197;42.130;24.746;2024-03-07T05:14:00;33.83;;;19.67;;
8319;SDS011;4197;42.130;24.746;2024-03-07T05:16:29;32.90;;;19.23;;
8319;SDS011;4197;42.130;24.746;2024-03-07T05:18:59;31.40;;;19.07;;
8319;SDS011;4197;42.130;24.746;2024-03-07T05:21:28;30.40;;;19.13;;
8319;SDS011;4197;42.130;24.746;2024-03-07T05:24:05;44.00;;;26.07;;
8319;SDS011;4197;42.130;24.746;2024-03-07T05:26:36;35.43;;;19.90;;
8319;SDS011;4197;42.130;24.746;2024-03-07T05:29:07;35.67;;;20.17;;
8319;SDS011;4197;42.130;24.746;2024-03-07T05:31:37;33.37;;;19.77;;
8319;SDS011;4197;42.130;24.746;2024-03-07T05:34:10;34.13;;;20.00;;
8319;SDS011;4197;42.130;24.746;2024-03-07T05:36:39;39.53;;;20.50;;
8319;SDS011;4197;42.130;24.746;2024-03-07T05:39:10;37.70;;;20.30;;
8319;SDS011;4197;42.130;24.746;2024-03-07T05:41:41;41.97;;;21.57;;
8319;SDS011;4197;42.130;24.746;2024-03-07T05:44:11;39.07;;;22.07;;
8319;SDS011;4197;42.130;24.746;2024-03-07T05:46:40;52.97;;;26.97;;
8319;SDS011;4197;42.130;24.746;2024-03-07T05:49:13;37.87;;;20.80;;
8319;SDS011;4197;42.130;24.746;2024-03-07T05:51:42;42.00;;;21.53;;
8319;SDS011;4197;42.130;24.746;2024-03-07T05:54:12;40.03;;;21.87;;
8319;SDS011;4197;42.130;24.746;2024-03-07T05:56:42;47.83;;;20.97;;
8319;SDS011;4197;42.130;24.746;2024-03-07T05:59:10;36.27;;;21.83;;
8319;SDS011;4197;42.130;24.746;2024-03-07T06:01:39;42.70;;;23.23;;
8319;SDS011;4197;42.130;24.746;2024-03-07T06:04:07;42.77;;;22.47;;
8319;SDS011;4197;42.130;24.746;2024-03-07T06:06:37;50.27;;;23.23;;
8319;SDS011;4197;42.130;24.746;2024-03-07T06:09:08;39.67;;;22.60;;
8319;SDS011;4197;42.130;24.746;2024-03-07T06:11:37;33.83;;;22.10;;
8319;SDS011;4197;42.130;24.746;2024-03-07T06:14:10;42.80;;;22.93;;
8319;SDS011;4197;42.130;24.746;2024-03-07T06:16:40;42.33;;;23.17;;
8319;SDS011;4197;42.130;24.746;2024-03-07T06:19:09;39.73;;;21.83;;
8319;SDS011;4197;42.130;24.746;2024-03-07T06:21:38;41.43;;;22.37;;
8319;SDS011;4197;42.130;24.746;2024-03-07T06:24:08;41.93;;;21.97;;
8319;SDS011;4197;42.130;24.746;2024-03-07T06:26:38;39.93;;;21.73;;
8319;SDS011;4197;42.130;24.746;2024-03-07T06:29:16;53.23;;;23.17;;
8319;SDS011;4197;42.130;24.746;2024-03-07T06:31:45;45.77;;;23.03;;
8319;SDS011;4197;42.130;24.746;2024-03-07T06:34:14;41.30;;;21.43;;
8319;SDS011;4197;42.130;24.746;2024-03-07T06:36:43;40.37;;;22.93;;
8319;SDS011;4197;42.130;24.746;2024-03-07T06:39:11;42.50;;;22.67;;
8319;SDS011;4197;42.130;24.746;2024-03-07T06:41:40;49.93;;;22.83;;
8319;SDS011;4197;42.130;24.746;2024-03-07T06:44:09;43.47;;;24.13;;
8319;SDS011;4197;42.130;24.746;2024-03-07T06:46:38;39.97;;;21.37;;
8319;SDS011;4197;42.130;24.746;2024-03-07T06:49:07;44.20;;;21.50;;
8319;SDS011;4197;42.130;24.746;2024-03-07T06:51:37;41.40;;;22.07;;
8319;SDS011;4197;42.130;24.746;2024-03-07T06:54:06;50.20;;;24.47;;
8319;SDS011;4197;42.130;24.746;2024-03-07T06:56:34;48.97;;;23.53;;
8319;SDS011;4197;42.130;24.746;2024-03-07T06:59:03;43.60;;;24.13;;
8319;SDS011;4197;42.130;24.746;2024-03-07T07:01:31;38.47;;;22.57;;
8319;SDS011;4197;42.130;24.746;2024-03-07T07:04:02;47.53;;;23.00;;
8319;SDS011;4197;42.130;24.746;2024-03-07T07:06:31;50.67;;;23.63;;
8319;SDS011;4197;42.130;24.746;2024-03-07T07:08:59;44.53;;;23.70;;
8319;SDS011;4197;42.130;24.746;2024-03-07T07:11:30;40.13;;;22.13;;
8319;SDS011;4197;42.130;24.746;2024-03-07T07:14:01;39.40;;;22.30;;
8319;SDS011;4197;42.130;24.746;2024-03-07T07:16:30;42.70;;;22.83;;
8319;SDS011;4197;42.130;24.746;2024-03-07T07:19:03;40.93;;;23.07;;
8319;SDS011;4197;42.130;24.746;2024-03-07T07:21:33;37.23;;;21.70;;
8319;SDS011;4197;42.130;24.746;2024-03-07T07:24:02;33.23;;;21.23;;
8319;SDS011;4197;42.130;24.746;2024-03-07T07:26:31;38.10;;;22.53;;
8319;SDS011;4197;42.130;24.746;2024-03-07T07:29:00;39.57;;;21.43;;
8319;SDS011;4197;42.130;24.746;2024-03-07T07:31:30;42.53;;;21.40;;
8319;SDS011;4197;42.130;24.746;2024-03-07T07:33:59;41.03;;;23.03;;
8319;SDS011;4197;42.130;24.746;2024-03-07T07:36:32;42.47;;;25.50;;
8319;SDS011;4197;42.130;24.746;2024-03-07T07:39:01;40.97;;;24.07;;
8319;SDS011;4197;42.130;24.746;2024-03-07T07:41:30;36.83;;;23.00;;
8319;SDS011;4197;42.130;24.746;2024-03-07T07:43:58;37.30;;;22.40;;
8319;SDS011;4197;42.130;24.746;2024-03-07T07:46:27;42.23;;;21.67;;
8319;SDS011;4197;42.130;24.746;2024-03-07T07:48:55;43.17;;;23.07;;
8319;SDS011;4197;42.130;24.746;2024-03-07T07:51:23;42.57;;;23.23;;
8319;SDS011;4197;42.130;24.746;2024-03-07T07:53:54;41.07;;;21.10;;
8319;SDS011;4197;42.130;24.746;2024-03-07T07:56:23;36.77;;;19.57;;
8319;SDS011;4197;42.130;24.746;2024-03-07T07:58:55;34.97;;;19.67;;
8319;SDS011;4197;42.130;24.746;2024-03-07T08:01:23;28.47;;;18.93;;
8319;SDS011;4197;42.130;24.746;2024-03-07T08:03:51;28.57;;;17.67;;
8319;SDS011;4197;42.130;24.746;2024-03-07T08:06:21;36.47;;;19.33;;
8319;SDS011;4197;42.130;24.746;2024-03-07T08:08:50;33.03;;;18.97;;
8319;SDS011;4197;42.130;24.746;2024-03-07T08:11:20;33.27;;;19.00;;
8319;SDS011;4197;42.130;24.746;2024-03-07T08:13:48;41.47;;;20.53;;
8319;SDS011;4197;42.130;24.746;2024-03-07T08:16:18;36.77;;;19.70;;
8319;SDS011;4197;42.130;24.746;2024-03-07T08:18:47;38.33;;;19.70;;
8319;SDS011;4197;42.130;24.746;2024-03-07T08:21:15;35.93;;;18.63;;
8319;SDS011;4197;42.130;24.746;2024-03-07T08:23:44;33.50;;;17.53;;
8319;SDS011;4197;42.130;24.746;2024-03-07T08:26:13;30.77;;;19.40;;
8319;SDS011;4197;42.130;24.746;2024-03-07T08:28:43;37.73;;;19.97;;
8319;SDS011;4197;42.130;24.746;2024-03-07T08:31:13;37.07;;;21.03;;
8319;SDS011;4197;42.130;24.746;2024-03-07T08:33:41;40.60;;;20.37;;
8319;SDS011;4197;42.130;24.746;2024-03-07T08:36:11;37.40;;;21.70;;
8319;SDS011;4197;42.130;24.746;2024-03-07T08:38:40;37.20;;;20.60;;
8319;SDS011;4197;42.130;24.746;2024-03-07T08:41:10;37.53;;;21.07;;
8319;SDS011;4197;42.130;24.746;2024-03-07T08:43:38;35.27;;;19.87;;
8319;SDS011;4197;42.130;24.746;2024-03-07T08:46:08;32.93;;;19.97;;
8319;SDS011;4197;42.130;24.746;2024-03-07T08:48:38;38.83;;;21.13;;
8319;SDS011;4197;42.130;24.746;2024-03-07T08:51:06;37.13;;;21.27;;
8319;SDS011;4197;42.130;24.746;2024-03-07T08:53:35;43.40;;;23.30;;
8319;SDS011;4197;42.130;24.746;2024-03-07T08:56:04;46.13;;;21.67;;
8319;SDS011;4197;42.130;24.746;2024-03-07T08:58:33;39.13;;;23.10;;
8319;SDS011;4197;42.130;24.746;2024-03-07T09:01:02;41.23;;;23.40;;
8319;SDS011;4197;42.130;24.746;2024-03-07T09:03:32;46.43;;;23.93;;
8319;SDS011;4197;42.130;24.746;2024-03-07T09:06:01;48.20;;;23.43;;
8319;SDS011;4197;42.130;24.746;2024-03-07T09:08:31;46.20;;;23.53;;
8319;SDS011;4197;42.130;24.746;2024-03-07T09:10:59;37.40;;;22.53;;
8319;SDS011;4197;42.130;24.746;2024-03-07T09:13:28;41.73;;;23.87;;
8319;SDS011;4197;42.130;24.746;2024-03-07T09:15:56;49.07;;;25.33;;
8319;SDS011;4197;42.130;24.746;2024-03-07T09:18:25;39.23;;;24.93;;
8319;SDS011;4197;42.130;24.746;2024-03-07T09:20:55;44.10;;;25.40;;
8319;SDS011;4197;42.130;24.746;2024-03-07T09:23:23;38.80;;;24.00;;
8319;SDS011;4197;42.130;24.746;2024-03-07T09:25:52;43.40;;;23.73;;
8319;SDS011;4197;42.130;24.746;2024-03-07T09:28:20;46.93;;;25.73;;
8319;SDS011;4197;42.130;24.746;2024-03-07T09:30:49;42.50;;;25.27;;
8319;SDS011;4197;42.130;24.746;2024-03-07T09:33:17;50.40;;;28.33;;
8319;SDS011;4197;42.130;24.746;2024-03-07T09:35:46;48.37;;;27.77;;
8319;SDS011;4197;42.130;24.746;2024-03-07T09:38:17;48.07;;;27.80;;
8319;SDS011;4197;42.130;24.746;2024-03-07T09:40:46;48.80;;;28.17;;
8319;SDS011;4197;42.130;24.746;2024-03-07T09:43:16;52.33;;;29.33;;
8319;SDS011;4197;42.130;24.746;2024-03-07T09:45:46;51.07;;;29.70;;
8319;SDS011;4197;42.130;24.746;2024-03-07T09:48:15;46.83;;;27.47;;
8319;SDS011;4197;42.130;24.746;2024-03-07T09:50:44;50.90;;;29.30;;
8319;SDS011;4197;42.130;24.746;2024-03-07T09:53:20;55.63;;;30.83;;
8319;SDS011;4197;42.130;24.746;2024-03-07T09:55:50;53.57;;;28.27;;
8319;SDS011;4197;42.130;24.746;2024-03-07T09:58:20;56.70;;;32.53;;
8319;SDS011;4197;42.130;24.746;2024-03-07T10:00:49;50.57;;;29.23;;
8319;SDS011;4197;42.130;24.746;2024-03-07T10:03:20;50.43;;;27.63;;
8319;SDS011;4197;42.130;24.746;2024-03-07T10:05:50;48.53;;;27.80;;
8319;SDS011;4197;42.130;24.746;2024-03-07T10:08:20;48.93;;;27.77;;
8319;SDS011;4197;42.130;24.746;2024-03-07T10:10:50;45.20;;;25.57;;
8319;SDS011;4197;42.130;24.746;2024-03-07T10:13:21;47.27;;;27.53;;
8319;SDS011;4197;42.130;24.746;2024-03-07T10:15:52;58.53;;;27.30;;
8319;SDS011;4197;42.130;24.746;2024-03-07T10:18:26;50.40;;;28.73;;
8319;SDS011;4197;42.130;24.746;2024-03-07T10:20:56;56.33;;;29.73;;
8319;SDS011;4197;42.130;24.746;2024-03-07T10:23:27;54.47;;;29.87;;
8319;SDS011;4197;42.130;24.746;2024-03-07T10:25:55;54.07;;;29.40;;
8319;SDS011;4197;42.130;24.746;2024-03-07T10:28:23;50.07;;;29.67;;
8319;SDS011;4197;42.130;24.746;2024-03-07T10:30:54;46.00;;;28.43;;
8319;SDS011;4197;42.130;24.746;2024-03-07T10:33:26;49.20;;;27.87;;
8319;SDS011;4197;42.130;24.746;2024-03-07T10:35:55;52.97;;;27.70;;
8319;SDS011;4197;42.130;24.746;2024-03-07T10:38:23;49.30;;;27.17;;
8319;SDS011;4197;42.130;24.746;2024-03-07T10:40:54;45.40;;;26.77;;
8319;SDS011;4197;42.130;24.746;2024-03-07T10:43:23;43.83;;;24.93;;
8319;SDS011;4197;42.130;24.746;2024-03-07T10:45:54;46.97;;;27.37;;
8319;SDS011;4197;42.130;24.746;2024-03-07T10:48:29;56.33;;;30.27;;
8319;SDS011;4197;42.130;24.746;2024-03-07T10:51:06;47.97;;;28.47;;
8319;SDS011;4197;42.130;24.746;2024-03-07T10:53:40;51.67;;;29.73;;
8319;SDS011;4197;42.130;24.746;2024-03-07T10:56:26;52.37;;;32.40;;
8319;SDS011;4197;42.130;24.746;2024-03-07T10:59:05;53.97;;;31.60;;
8319;SDS011;4197;42.130;24.746;2024-03-07T11:01:44;58.37;;;32.10;;
8319;SDS011;4197;42.130;24.746;2024-03-07T11:04:20;59.07;;;32.00;;
8319;SDS011;4197;42.130;24.746;2024-03-07T11:06:50;50.57;;;30.23;;
8319;SDS011;4197;42.130;24.746;2024-03-07T11:09:20;50.90;;;31.57;;
8319;SDS011;4197;42.130;24.746;2024-03-07T11:12:01;62.67;;;34.47;;
8319;SDS011;4197;42.130;24.746;2024-03-07T11:14:31;64.27;;;32.53;;
8319;SDS011;4197;42.130;24.746;2024-03-07T11:17:02;62.40;;;33.87;;
8319;SDS011;4197;42.130;24.746;2024-03-07T11:19:31;65.17;;;33.50;;
8319;SDS011;4197;42.130;24.746;2024-03-07T11:22:04;56.30;;;32.43;;
8319;SDS011;4197;42.130;24.746;2024-03-07T11:24:42;59.70;;;32.87;;
8319;SDS011;4197;42.130;24.746;2024-03-07T11:27:13;59.93;;;32.50;;
8319;SDS011;4197;42.130;24.746;2024-03-07T11:29:43;54.97;;;32.47;;
8319;SDS011;4197;42.130;24.746;2024-03-07T11:32:21;53.20;;;31.07;;
8319;SDS011;4197;42.130;24.746;2024-03-07T11:34:50;59.30;;;33.87;;
8319;SDS011;4197;42.130;24.746;2024-03-07T11:37:37;61.90;;;33.10;;
8319;SDS011;4197;42.130;24.746;2024-03-07T11:40:11;59.30;;;32.93;;
8319;SDS011;4197;42.130;24.746;2024-03-07T11:42:49;66.30;;;35.60;;
8319;SDS011;4197;42.130;24.746;2024-03-07T11:45:19;62.63;;;36.13;;
8319;SDS011;4197;42.130;24.746;2024-03-07T11:47:52;64.13;;;36.23;;
8319;SDS011;4197;42.130;24.746;2024-03-07T11:50:27;60.93;;;35.57;;
8319;SDS011;4197;42.130;24.746;2024-03-07T11:52:56;59.57;;;34.50;;
8319;SDS011;4197;42.130;24.746;2024-03-07T11:55:24;65.23;;;36.33;;
8319;SDS011;4197;42.130;24.746;2024-03-07T11:57:56;62.53;;;35.17;;
8319;SDS011;4197;42.130;24.746;2024-03-07T12:00:25;69.40;;;36.70;;
8319;SDS011;4197;42.130;24.746;2024-03-07T12:03:02;70.90;;;37.47;;
8319;SDS011;4197;42.130;24.746;2024-03-07T12:05:33;69.00;;;37.13;;
8319;SDS011;4197;42.130;24.746;2024-03-07T12:08:04;68.90;;;39.30;;
8319;SDS011;4197;42.130;24.746;2024-03-07T12:10:33;72.60;;;39.13;;
8319;SDS011;4197;42.130;24.746;2024-03-07T12:13:04;76.07;;;40.83;;
8319;SDS011;4197;42.130;24.746;2024-03-07T12:15:33;76.17;;;41.70;;
8319;SDS011;4197;42.130;24.746;2024-03-07T12:18:05;72.20;;;41.60;;
8319;SDS011;4197;42.130;24.746;2024-03-07T12:20:36;66.90;;;38.80;;
8319;SDS011;4197;42.130;24.746;2024-03-07T12:23:09;63.33;;;37.27;;
8319;SDS011;4197;42.130;24.746;2024-03-07T12:25:38;68.80;;;38.80;;
8319;SDS011;4197;42.130;24.746;2024-03-07T12:28:08;68.63;;;38.20;;
8319;SDS011;4197;42.130;24.746;2024-03-07T12:33:28;68.60;;;37.60;;
8319;SDS011;4197;42.130;24.746;2024-03-07T12:36:01;59.33;;;37.07;;
8319;SDS011;4197;42.130;24.746;2024-03-07T12:38:34;62.77;;;37.20;;
8319;SDS011;4197;42.130;24.746;2024-03-07T12:41:08;67.90;;;39.23;;
8319;SDS011;4197;42.130;24.746;2024-03-07T12:43:44;62.67;;;35.70;;
8319;SDS011;4197;42.130;24.746;2024-03-07T12:46:13;63.17;;;34.40;;
8319;SDS011;4197;42.130;24.746;2024-03-07T12:48:44;58.70;;;35.37;;
8319;SDS011;4197;42.130;24.746;2024-03-07T12:51:13;61.87;;;34.93;;
8319;SDS011;4197;42.130;24.746;2024-03-07T12:53:46;64.30;;;34.67;;
8319;SDS011;4197;42.130;24.746;2024-03-07T12:56:15;64.67;;;35.40;;
8319;SDS011;4197;42.130;24.746;2024-03-07T12:58:45;58.93;;;33.43;;
8319;SDS011;4197;42.130;24.746;2024-03-07T13:01:17;63.80;;;35.43;;
8319;SDS011;4197;42.130;24.746;2024-03-07T13:03:47;58.77;;;34.30;;
8319;SDS011;4197;42.130;24.746;2024-03-07T13:06:16;59.97;;;35.07;;
8319;SDS011;4197;42.130;24.746;2024-03-07T13:08:53;56.67;;;33.47;;
8319;SDS011;4197;42.130;24.746;2024-03-07T13:11:23;52.17;;;29.80;;
8319;SDS011;4197;42.130;24.746;2024-03-07T13:13:55;48.87;;;31.53;;
8319;SDS011;4197;42.130;24.746;2024-03-07T13:16:24;48.77;;;30.67;;
8319;SDS011;4197;42.130;24.746;2024-03-07T13:18:58;49.30;;;31.00;;
8319;SDS011;4197;42.130;24.746;2024-03-07T13:21:26;45.93;;;28.50;;
8319;SDS011;4197;42.130;24.746;2024-03-07T13:23:56;52.73;;;30.73;;
8319;SDS011;4197;42.130;24.746;2024-03-07T13:26:27;43.83;;;27.80;;
8319;SDS011;4197;42.130;24.746;2024-03-07T13:29:00;43.47;;;27.90;;
8319;SDS011;4197;42.130;24.746;2024-03-07T13:31:28;46.07;;;27.53;;
8319;SDS011;4197;42.130;24.746;2024-03-07T13:33:57;39.57;;;24.87;;
8319;SDS011;4197;42.130;24.746;2024-03-07T13:36:28;40.23;;;25.47;;
8319;SDS011;4197;42.130;24.746;2024-03-07T13:38:57;37.93;;;24.33;;
8319;SDS011;4197;42.130;24.746;2024-03-07T13:41:25;38.97;;;24.30;;
8319;SDS011;4197;42.130;24.746;2024-03-07T13:43:55;48.63;;;31.87;;
8319;SDS011;4197;42.130;24.746;2024-03-07T13:46:28;39.30;;;27.47;;
8319;SDS011;4197;42.130;24.746;2024-03-07T13:48:57;37.70;;;25.07;;
8319;SDS011;4197;42.130;24.746;2024-03-07T13:51:34;38.17;;;22.40;;
8319;SDS011;4197;42.130;24.746;2024-03-07T13:54:04;30.87;;;21.23;;
8319;SDS011;4197;42.130;24.746;2024-03-07T13:56:55;30.07;;;19.80;;
8319;SDS011;4197;42.130;24.746;2024-03-07T13:59:47;28.63;;;19.73;;
8319;SDS011;4197;42.130;24.746;2024-03-07T14:08:50;26.57;;;17.27;;
8319;SDS011;4197;42.130;24.746;2024-03-07T14:21:15;25.10;;;18.10;;
8319;SDS011;4197;42.130;24.746;2024-03-07T14:24:11;23.33;;;15.63;;
8319;SDS011;4197;42.130;24.746;2024-03-07T14:27:15;25.57;;;16.57;;
8319;SDS011;4197;42.130;24.746;2024-03-07T14:29:54;23.60;;;15.97;;
8319;SDS011;4197;42.130;24.746;2024-03-07T14:32:51;22.77;;;16.10;;
8319;SDS011;4197;42.130;24.746;2024-03-07T14:35:22;24.23;;;16.27;;
8319;SDS011;4197;42.130;24.746;2024-03-07T14:40:54;18.40;;;13.33;;
8319;SDS011;4197;42.130;24.746;2024-03-07T14:43:24;18.27;;;12.83;;
8319;SDS011;4197;42.130;24.746;2024-03-07T14:45:54;17.87;;;13.40;;
8319;SDS011;4197;42.130;24.746;2024-03-07T14:48:23;18.23;;;12.77;;
8319;SDS011;4197;42.130;24.746;2024-03-07T14:50:51;19.60;;;13.00;;
8319;SDS011;4197;42.130;24.746;2024-03-07T14:53:20;23.10;;;14.40;;
8319;SDS011;4197;42.130;24.746;2024-03-07T14:55:49;19.47;;;13.40;;
8319;SDS011;4197;42.130;24.746;2024-03-07T14:58:18;16.57;;;12.10;;
8319;SDS011;4197;42.130;24.746;2024-03-07T15:00:47;15.33;;;12.07;;
8319;SDS011;4197;42.130;24.746;2024-03-07T15:03:24;19.17;;;12.87;;
8319;SDS011;4197;42.130;24.746;2024-03-07T15:05:55;20.97;;;14.77;;
8319;SDS011;4197;42.130;24.746;2024-03-07T15:08:25;20.30;;;13.60;;
8319;SDS011;4197;42.130;24.746;2024-03-07T15:10:58;15.40;;;12.13;;
8319;SDS011;4197;42.130;24.746;2024-03-07T15:13:35;17.43;;;13.03;;